Spencer, Louisiana
Current Conditions -  °F | °C
As of 3:53 PM on Tuesday 21 Oct 2014 (Local Time) from KMLU Reporting Station
Few Clouds Few Clouds  
Wind Chill: 80°   Ceiling: Unl
Heat Index: 81°   Visibility: 10mi
Dew Point: 60°   Wind: 8mph
Humidity: 50%   Direction: 360°N
Pressure: 30.03"   Gusts: NA
Location:  32.6145°N, 92.1402°W
Report Text: KMLU 212053Z 36007KT 10SM FEW046 27/16 A3003 RMK AO2 SLP169 T02670156 56021
Loading
Personal Weather Stations






























Interactive Weather Map
Tropical Storm Tracking
New forecast layout! Learn more

10-Day Weather Forecast

Advertisements
Track Severe Weather on mobile